createdAt,value
2023-02-25T00:01:36.438Z,5.10
2023-02-25T00:04:04.095Z,4.90
2023-02-25T00:06:31.705Z,4.60
2023-02-25T00:08:59.241Z,3.73
2023-02-25T00:11:27.492Z,4.10
2023-02-25T00:13:55.520Z,4.17
2023-02-25T00:16:24.248Z,4.40
2023-02-25T00:18:55.486Z,3.83
2023-02-25T00:21:23.021Z,5.07
2023-02-25T00:23:51.680Z,4.50
2023-02-25T00:26:19.134Z,4.70
2023-02-25T00:28:46.771Z,4.27
2023-02-25T00:31:15.713Z,3.97
2023-02-25T00:33:43.478Z,4.63
2023-02-25T00:36:12.543Z,4.67
2023-02-25T00:38:40.082Z,4.83
2023-02-25T00:41:11.865Z,4.50
2023-02-25T00:43:40.119Z,4.40
2023-02-25T00:46:07.553Z,4.00
2023-02-25T00:48:35.133Z,4.67
2023-02-25T00:51:09.892Z,4.47
2023-02-25T00:53:37.985Z,5.50
2023-02-25T00:56:06.728Z,5.07
2023-02-25T00:58:37.820Z,5.03
2023-02-25T01:01:06.788Z,4.90
2023-02-25T01:03:34.228Z,5.63
2023-02-25T01:06:02.994Z,6.37
2023-02-25T01:08:30.749Z,5.63
2023-02-25T01:10:58.222Z,6.43
2023-02-25T01:13:26.830Z,6.47
2023-02-25T01:15:54.318Z,5.80
2023-02-25T01:18:22.529Z,7.00
2023-02-25T01:20:49.983Z,6.80
2023-02-25T01:23:18.332Z,5.77
2023-02-25T01:25:47.019Z,6.70
2023-02-25T01:28:14.553Z,7.33
2023-02-25T01:30:42.053Z,6.50
2023-02-25T01:33:09.581Z,6.73
2023-02-25T01:35:37.218Z,7.40
2023-02-25T01:38:04.813Z,7.80
2023-02-25T01:40:32.374Z,7.43
2023-02-25T01:42:59.823Z,6.27
2023-02-25T01:45:30.221Z,7.83
2023-02-25T01:48:17.878Z,7.87
2023-02-25T01:50:52.716Z,6.83
2023-02-25T01:53:28.923Z,7.63
2023-02-25T01:55:58.838Z,8.40
2023-02-25T01:58:27.722Z,7.87
2023-02-25T02:00:56.003Z,8.47
2023-02-25T02:03:26.348Z,8.90
2023-02-25T02:05:56.747Z,9.40
2023-02-25T02:08:24.758Z,8.13
2023-02-25T02:10:52.182Z,8.13
2023-02-25T02:13:20.112Z,9.30
2023-02-25T02:15:59.626Z,8.37
2023-02-25T02:18:29.373Z,8.20
2023-02-25T02:21:26.240Z,8.60
2023-02-25T02:24:28.916Z,7.33
2023-02-25T02:27:02.394Z,7.37
2023-02-25T02:29:41.368Z,7.53
2023-02-25T02:32:15.798Z,8.00
2023-02-25T02:35:09.564Z,7.47
2023-02-25T02:37:43.359Z,7.30
2023-02-25T02:40:40.524Z,7.93
2023-02-25T02:43:13.448Z,6.57
2023-02-25T02:46:07.406Z,7.37
2023-02-25T02:48:54.519Z,7.20
2023-02-25T02:51:27.336Z,7.90
2023-02-25T02:53:56.336Z,9.50
2023-02-25T02:56:25.780Z,9.57
2023-02-25T02:59:05.888Z,9.07
2023-02-25T03:01:36.026Z,8.03
2023-02-25T03:04:06.102Z,8.30
2023-02-25T03:06:39.089Z,7.73
2023-02-25T03:09:12.510Z,7.43
2023-02-25T03:11:40.044Z,8.43
2023-02-25T03:14:08.776Z,8.40
2023-02-25T03:16:39.066Z,8.03
2023-02-25T03:19:32.870Z,8.30
2023-02-25T03:22:05.091Z,8.87
2023-02-25T03:24:39.357Z,9.37
2023-02-25T03:27:21.069Z,9.27
2023-02-25T03:29:51.166Z,8.57
2023-02-25T03:32:19.896Z,9.20
2023-02-25T03:34:52.638Z,8.30
2023-02-25T03:37:23.006Z,8.93
2023-02-25T03:39:52.910Z,9.33
2023-02-25T03:42:22.758Z,9.70
2023-02-25T03:44:53.098Z,9.33
2023-02-25T03:47:21.777Z,9.20
2023-02-25T03:50:01.281Z,9.37
2023-02-25T03:52:29.963Z,9.77
2023-02-25T03:55:01.697Z,11.13
2023-02-25T03:57:36.623Z,11.00
2023-02-25T04:00:15.627Z,11.37
2023-02-25T04:02:44.239Z,11.00
2023-02-25T04:05:12.199Z,12.37
2023-02-25T04:07:40.168Z,10.33
2023-02-25T04:10:09.032Z,10.77
2023-02-25T04:12:36.500Z,12.67
2023-02-25T04:15:06.129Z,11.33
2023-02-25T04:17:33.912Z,11.50
2023-02-25T04:20:01.377Z,13.40
2023-02-25T04:22:28.882Z,10.47
2023-02-25T04:24:56.347Z,11.30
2023-02-25T04:27:24.274Z,11.27
2023-02-25T04:29:51.896Z,11.07
2023-02-25T04:32:19.513Z,12.07
2023-02-25T04:34:47.049Z,10.17
2023-02-25T04:37:14.478Z,10.57
2023-02-25T04:39:41.914Z,10.93
2023-02-25T04:42:09.949Z,11.40
2023-02-25T04:44:37.408Z,12.03
2023-02-25T04:47:04.945Z,11.20
2023-02-25T04:49:32.407Z,11.47
2023-02-25T04:52:00.032Z,11.77
2023-02-25T04:54:27.545Z,10.70
2023-02-25T04:56:56.446Z,11.37
2023-02-25T04:59:26.807Z,12.70
2023-02-25T05:01:54.487Z,11.40
2023-02-25T05:04:21.953Z,12.10
2023-02-25T05:06:49.405Z,12.03
2023-02-25T05:09:16.858Z,13.43
2023-02-25T05:11:44.349Z,11.27
2023-02-25T05:14:11.811Z,11.83
2023-02-25T05:16:39.392Z,12.77
2023-02-25T05:19:06.865Z,11.73
2023-02-25T05:21:34.919Z,11.80
2023-02-25T05:24:02.404Z,12.70
2023-02-25T05:26:29.831Z,11.83
2023-02-25T05:28:58.146Z,12.80
2023-02-25T05:31:26.296Z,12.87
2023-02-25T05:33:54.077Z,12.73
2023-02-25T05:36:21.942Z,13.57
2023-02-25T05:38:50.338Z,13.10
2023-02-25T05:41:17.817Z,13.20
2023-02-25T05:43:46.083Z,12.40
2023-02-25T05:46:14.441Z,13.93
2023-02-25T05:48:42.996Z,13.03
2023-02-25T05:51:15.094Z,13.03
2023-02-25T05:53:44.777Z,13.63
2023-02-25T05:56:13.971Z,11.90
2023-02-25T05:58:41.736Z,12.50
2023-02-25T06:01:11.576Z,12.57
2023-02-25T06:03:39.273Z,12.20
2023-02-25T06:06:07.428Z,12.13
2023-02-25T06:08:35.081Z,12.57
2023-02-25T06:11:02.951Z,12.30
2023-02-25T06:13:30.450Z,11.20
2023-02-25T06:15:57.900Z,11.60
2023-02-25T06:18:25.349Z,12.50
2023-02-25T06:20:52.883Z,12.50
2023-02-25T06:23:20.342Z,12.53
2023-02-25T06:25:47.752Z,12.50
2023-02-25T06:28:15.629Z,12.97
2023-02-25T06:30:43.086Z,12.90
2023-02-25T06:33:10.615Z,12.73
2023-02-25T06:35:38.138Z,11.90
2023-02-25T06:38:05.642Z,12.03
2023-02-25T06:40:35.938Z,11.77
2023-02-25T06:43:03.416Z,11.90
2023-02-25T06:45:30.842Z,11.70
2023-02-25T06:47:58.771Z,11.90
2023-02-25T06:50:26.203Z,12.57
2023-02-25T06:52:53.746Z,12.93
2023-02-25T06:55:21.548Z,13.33
2023-02-25T06:57:48.969Z,13.07
2023-02-25T07:00:16.639Z,12.60
2023-02-25T07:02:44.112Z,11.13
2023-02-25T07:05:11.558Z,11.73
2023-02-25T07:07:39.145Z,11.27
2023-02-25T07:10:07.505Z,13.53
2023-02-25T07:12:35.047Z,12.07
2023-02-25T07:15:02.574Z,13.60
2023-02-25T07:17:30.281Z,13.47
2023-02-25T07:19:57.716Z,12.27
2023-02-25T07:22:25.312Z,12.37
2023-02-25T07:24:52.874Z,12.70
2023-02-25T07:27:20.525Z,13.07
2023-02-25T07:29:47.984Z,12.97
2023-02-25T07:32:15.704Z,12.67
2023-02-25T07:34:43.382Z,13.03
2023-02-25T07:37:13.041Z,11.57
2023-02-25T07:39:40.565Z,13.03
2023-02-25T07:42:08.070Z,12.40
2023-02-25T07:44:37.206Z,12.70
2023-02-25T07:47:04.721Z,10.80
2023-02-25T07:49:32.177Z,12.33
2023-02-25T07:52:00.876Z,11.13
2023-02-25T07:54:28.439Z,11.07
2023-02-25T07:56:55.920Z,9.80
2023-02-25T07:59:23.461Z,11.50
2023-02-25T08:01:50.935Z,11.23
2023-02-25T08:04:18.387Z,12.57
2023-02-25T08:06:47.225Z,12.40
2023-02-25T08:09:15.890Z,10.60
2023-02-25T08:11:44.220Z,11.20
2023-02-25T08:14:12.027Z,11.77
2023-02-25T08:16:39.515Z,11.03
2023-02-25T08:19:07.273Z,10.97
2023-02-25T08:21:34.924Z,10.90
2023-02-25T08:24:02.357Z,10.80
2023-02-25T08:26:29.962Z,10.57
2023-02-25T08:28:58.095Z,8.50
2023-02-25T08:31:26.164Z,9.63
2023-02-25T08:33:53.902Z,9.90
2023-02-25T08:36:26.773Z,9.80
2023-02-25T08:38:54.920Z,9.80
2023-02-25T08:41:23.212Z,9.17
2023-02-25T08:43:52.203Z,9.83
2023-02-25T08:46:21.295Z,8.77
2023-02-25T08:48:50.082Z,8.57
2023-02-25T08:51:17.811Z,7.90
2023-02-25T08:53:45.446Z,9.00
2023-02-25T08:56:14.382Z,8.73
2023-02-25T08:58:42.400Z,8.93
2023-02-25T09:01:13.829Z,8.03
2023-02-25T09:03:54.604Z,8.30
2023-02-25T09:06:22.967Z,8.20
2023-02-25T09:08:50.602Z,7.20
2023-02-25T09:11:18.900Z,8.40
2023-02-25T09:13:46.367Z,7.50
2023-02-25T09:16:17.590Z,8.07
2023-02-25T09:18:48.851Z,7.10
2023-02-25T09:21:16.428Z,7.20
2023-02-25T09:23:44.206Z,7.60
2023-02-25T09:26:12.281Z,6.87
2023-02-25T09:28:40.696Z,8.87
2023-02-25T09:31:08.315Z,8.60
2023-02-25T09:33:36.556Z,8.40
2023-02-25T09:36:05.577Z,8.17
2023-02-25T09:38:33.008Z,6.97
2023-02-25T09:41:00.581Z,7.63
2023-02-25T09:43:30.208Z,8.50
2023-02-25T09:46:06.184Z,8.07
2023-02-25T09:48:35.768Z,7.10
2023-02-25T09:51:08.857Z,7.40
2023-02-25T09:53:47.884Z,7.53
2023-02-25T09:56:17.245Z,7.90
2023-02-25T09:58:46.916Z,7.80
2023-02-25T10:01:18.409Z,8.23
2023-02-25T10:03:50.453Z,7.00
2023-02-25T10:06:25.432Z,6.97
2023-02-25T10:09:04.868Z,7.07
2023-02-25T10:11:41.714Z,7.73
2023-02-25T10:14:45.118Z,7.53
2023-02-25T10:17:36.524Z,7.43
2023-02-25T10:20:23.619Z,7.50
2023-02-25T10:23:04.306Z,7.23
2023-02-25T10:25:35.171Z,6.73
2023-02-25T10:28:05.721Z,6.93
2023-02-25T10:30:45.621Z,6.30
2023-02-25T10:33:17.551Z,5.80
2023-02-25T10:35:44.995Z,6.17
2023-02-25T10:38:15.657Z,5.93
2023-02-25T10:40:43.229Z,6.17
2023-02-25T10:43:24.083Z,5.87
2023-02-25T10:45:55.909Z,6.57
2023-02-25T10:48:24.381Z,6.00
2023-02-25T10:51:14.815Z,6.33
2023-02-25T10:54:01.714Z,5.40
2023-02-25T10:56:32.089Z,5.57
2023-02-25T10:59:04.813Z,6.13
2023-02-25T11:01:37.085Z,6.43
2023-02-25T11:04:06.481Z,6.30
2023-02-25T11:06:43.459Z,6.43
2023-02-25T11:09:31.178Z,7.20
2023-02-25T11:12:09.775Z,6.10
2023-02-25T11:14:38.876Z,6.13
2023-02-25T11:17:17.453Z,7.70
2023-02-25T11:19:47.651Z,6.60
2023-02-25T11:22:20.102Z,6.37
2023-02-25T11:24:55.584Z,4.93
2023-02-25T11:27:38.569Z,6.07
2023-02-25T11:30:08.596Z,5.83
2023-02-25T11:32:36.417Z,5.40
2023-02-25T11:35:18.136Z,4.80
2023-02-25T11:37:49.347Z,5.27
2023-02-25T11:40:28.022Z,4.80
2023-02-25T11:43:28.081Z,4.30
2023-02-25T11:46:00.693Z,4.97
2023-02-25T11:48:36.914Z,4.77
2023-02-25T11:51:17.694Z,4.70
2023-02-25T11:53:51.406Z,6.03
2023-02-25T11:56:31.278Z,4.97
2023-02-25T11:59:26.191Z,5.03
2023-02-25T12:02:13.579Z,4.80
2023-02-25T12:04:57.072Z,4.50
2023-02-25T12:08:05.188Z,5.00
2023-02-25T12:10:56.027Z,5.30
2023-02-25T12:13:46.905Z,6.10
2023-02-25T12:16:49.768Z,5.47
2023-02-25T12:19:46.440Z,5.67
2023-02-25T12:22:14.894Z,5.37
2023-02-25T12:25:02.602Z,4.37
2023-02-25T12:27:52.535Z,4.17
2023-02-25T12:30:56.397Z,3.90
2023-02-25T12:33:47.404Z,4.27
2023-02-25T12:36:33.684Z,4.07
2023-02-25T12:39:11.831Z,4.07
2023-02-25T12:41:54.783Z,3.80
2023-02-25T12:47:48.669Z,3.73
2023-02-25T12:50:39.270Z,3.60
2023-02-25T12:53:22.999Z,3.27
2023-02-25T12:55:57.775Z,3.70
2023-02-25T12:58:36.691Z,5.63
2023-02-25T13:01:30.429Z,3.80
2023-02-25T13:04:16.666Z,3.43
2023-02-25T13:07:14.531Z,9.53
2023-02-25T13:10:04.704Z,2.63
2023-02-25T13:12:54.708Z,20.80
2023-02-25T13:15:26.329Z,15.97
2023-02-25T13:18:01.513Z,19.90
2023-02-25T13:20:37.325Z,3.47
2023-02-25T13:23:30.843Z,4.00
2023-02-25T13:26:18.980Z,3.90
2023-02-25T13:28:55.654Z,4.20
2023-02-25T13:31:49.472Z,3.77
2023-02-25T13:37:41.168Z,2.87
2023-02-25T13:40:27.337Z,3.33
2023-02-25T13:43:12.222Z,3.70
2023-02-25T13:45:46.659Z,3.67
2023-02-25T13:48:24.077Z,3.70
2023-02-25T13:51:11.806Z,3.57
2023-02-25T13:53:53.560Z,3.50
2023-02-25T13:56:43.153Z,3.97
2023-02-25T14:02:47.444Z,2.83
2023-02-25T14:05:35.696Z,2.70
2023-02-25T14:08:15.620Z,35.23
2023-02-25T14:10:54.678Z,10.50
2023-02-25T14:13:39.730Z,2.73
2023-02-25T14:16:24.509Z,2.93
2023-02-25T14:19:12.304Z,26.77
2023-02-25T14:22:07.481Z,4.23
2023-02-25T14:24:51.564Z,8.63
2023-02-25T14:27:29.926Z,8.80
2023-02-25T14:30:11.155Z,3.60
2023-02-25T14:32:56.964Z,7.10
2023-02-25T14:35:53.797Z,5.70
2023-02-25T14:38:35.863Z,3.40
2023-02-25T14:41:13.022Z,3.33
2023-02-25T14:43:40.859Z,2.90
2023-02-25T14:46:13.441Z,3.20
2023-02-25T14:48:59.432Z,2.77
2023-02-25T14:51:44.055Z,3.60
2023-02-25T14:54:30.331Z,3.50
2023-02-25T14:57:09.718Z,3.60
2023-02-25T14:59:53.407Z,3.57
2023-02-25T15:02:40.588Z,3.53
2023-02-25T15:05:40.630Z,2.93
2023-02-25T15:08:26.706Z,3.20
2023-02-25T15:11:14.440Z,3.30
2023-02-25T15:14:05.126Z,3.50
2023-02-25T15:16:51.295Z,3.23
2023-02-25T15:19:41.509Z,3.20
2023-02-25T15:22:27.960Z,4.43
2023-02-25T15:25:15.548Z,3.00
2023-02-25T15:27:46.074Z,2.60
2023-02-25T15:30:18.283Z,2.53
2023-02-25T15:33:21.706Z,2.70
2023-02-25T15:35:54.804Z,2.60
2023-02-25T15:38:40.550Z,2.50
2023-02-25T15:41:26.534Z,2.67
2023-02-25T15:44:01.311Z,2.60
2023-02-25T15:46:57.676Z,3.10
2023-02-25T15:49:35.428Z,2.40
2023-02-25T15:52:04.906Z,2.17
2023-02-25T15:54:52.798Z,2.40
2023-02-25T15:57:38.125Z,2.20
2023-02-25T16:00:25.749Z,2.60
2023-02-25T16:02:58.394Z,2.27
2023-02-25T16:05:33.414Z,2.30
2023-02-25T16:08:15.484Z,2.73
2023-02-25T16:10:47.258Z,1.67
2023-02-25T16:13:16.750Z,16.83
2023-02-25T16:15:45.995Z,3.90
2023-02-25T16:18:27.753Z,1.70
2023-02-25T16:20:58.770Z,1.77
2023-02-25T16:23:28.634Z,1.80
2023-02-25T16:26:19.116Z,1.70
2023-02-25T16:28:54.981Z,1.50
2023-02-25T16:31:25.635Z,1.40
2023-02-25T16:34:13.522Z,1.43
2023-02-25T16:37:01.092Z,1.27
2023-02-25T16:39:29.237Z,1.20
2023-02-25T16:41:56.661Z,1.50
2023-02-25T16:44:27.488Z,1.30
2023-02-25T16:46:55.893Z,1.33
2023-02-25T16:49:28.134Z,1.73
2023-02-25T16:51:55.608Z,1.37
2023-02-25T16:54:25.543Z,1.40
2023-02-25T16:56:59.353Z,1.40
2023-02-25T16:59:27.204Z,1.87
2023-02-25T17:01:57.078Z,1.53
2023-02-25T17:04:35.618Z,1.47
2023-02-25T17:07:25.440Z,1.83
2023-02-25T17:09:54.823Z,1.80
2023-02-25T17:12:29.449Z,2.60
2023-02-25T17:14:59.016Z,1.37
2023-02-25T17:17:29.198Z,1.40
2023-02-25T17:19:57.505Z,1.30
2023-02-25T17:22:27.419Z,1.30
2023-02-25T17:24:56.396Z,1.60
2023-02-25T17:27:24.556Z,1.40
2023-02-25T17:29:52.250Z,1.33
2023-02-25T17:32:21.723Z,1.53
2023-02-25T17:34:50.794Z,1.20
2023-02-25T17:37:18.727Z,1.27
2023-02-25T17:39:46.364Z,1.53
2023-02-25T17:42:34.393Z,1.47
2023-02-25T17:45:02.877Z,1.70
2023-02-25T17:47:34.981Z,1.30
2023-02-25T17:50:12.692Z,1.90
2023-02-25T17:52:40.445Z,1.77
2023-02-25T17:55:20.853Z,1.73
2023-02-25T17:57:48.582Z,1.63
2023-02-25T18:00:24.215Z,1.53
2023-02-25T18:03:08.473Z,1.70
2023-02-25T18:05:44.497Z,1.80
2023-02-25T18:08:24.993Z,1.70
2023-02-25T18:11:03.925Z,1.40
2023-02-25T18:13:36.268Z,1.90
2023-02-25T18:16:33.315Z,1.43
2023-02-25T18:19:01.525Z,1.87
2023-02-25T18:21:29.429Z,1.90
2023-02-25T18:23:57.308Z,1.40
2023-02-25T18:26:26.349Z,1.63
2023-02-25T18:28:55.656Z,1.43
2023-02-25T18:31:23.302Z,1.63
2023-02-25T18:33:52.244Z,2.13
2023-02-25T18:36:25.919Z,1.43
2023-02-25T18:38:55.301Z,1.57
2023-02-25T18:41:22.739Z,1.67
2023-02-25T18:43:51.021Z,1.83
2023-02-25T18:46:18.762Z,2.13
2023-02-25T18:48:46.708Z,1.63
2023-02-25T18:51:14.480Z,1.60
2023-02-25T18:53:42.207Z,1.80
2023-02-25T18:56:13.781Z,1.50
2023-02-25T18:58:42.977Z,1.63
2023-02-25T19:01:16.521Z,1.80
2023-02-25T19:03:46.116Z,1.50
2023-02-25T19:06:13.562Z,1.90
2023-02-25T19:08:41.115Z,1.33
2023-02-25T19:11:08.599Z,1.27
2023-02-25T19:13:37.770Z,1.67
2023-02-25T19:16:05.550Z,1.70
2023-02-25T19:18:33.197Z,1.70
2023-02-25T19:21:00.861Z,1.77
2023-02-25T19:23:29.123Z,1.87
2023-02-25T19:25:58.035Z,1.80
2023-02-25T19:28:26.625Z,2.07
2023-02-25T19:30:54.190Z,1.73
2023-02-25T19:33:21.788Z,1.70
2023-02-25T19:35:49.309Z,2.00
2023-02-25T19:38:18.840Z,1.67
2023-02-25T19:40:46.970Z,1.73
2023-02-25T19:43:15.340Z,2.20
2023-02-25T19:45:43.142Z,1.90
2023-02-25T19:48:11.297Z,1.80
2023-02-25T19:50:40.938Z,1.70
2023-02-25T19:53:08.664Z,2.07
2023-02-25T19:55:36.189Z,2.27
2023-02-25T19:58:13.676Z,1.97
2023-02-25T20:00:46.042Z,2.20
2023-02-25T20:03:14.307Z,2.03
2023-02-25T20:05:42.033Z,2.30
2023-02-25T20:08:10.204Z,2.17
2023-02-25T20:10:37.638Z,2.43
2023-02-25T20:13:05.239Z,2.00
2023-02-25T20:15:32.723Z,2.40
2023-02-25T20:18:00.403Z,1.83
2023-02-25T20:20:27.876Z,2.47
2023-02-25T20:22:55.373Z,2.33
2023-02-25T20:25:23.042Z,2.13
2023-02-25T20:27:50.867Z,2.47
2023-02-25T20:30:18.843Z,2.40
2023-02-25T20:32:46.403Z,2.30
2023-02-25T20:35:15.916Z,2.77
2023-02-25T20:37:48.505Z,2.80
2023-02-25T20:40:16.070Z,2.70
2023-02-25T20:42:43.571Z,2.97
2023-02-25T20:45:14.564Z,2.93
2023-02-25T20:47:42.269Z,2.50
2023-02-25T20:50:10.225Z,3.10
2023-02-25T20:52:37.800Z,2.87
2023-02-25T20:55:06.725Z,2.70
2023-02-25T20:57:34.499Z,3.03
2023-02-25T21:00:01.980Z,2.47
2023-02-25T21:02:29.764Z,2.87
2023-02-25T21:04:57.208Z,2.83
2023-02-25T21:07:24.676Z,2.60
2023-02-25T21:09:52.083Z,2.60
2023-02-25T21:12:19.618Z,2.77
2023-02-25T21:14:47.084Z,3.30
2023-02-25T21:17:15.664Z,3.17
2023-02-25T21:19:43.078Z,3.03
2023-02-25T21:22:10.652Z,2.47
2023-02-25T21:24:38.081Z,3.13
2023-02-25T21:27:06.086Z,3.43
2023-02-25T21:29:33.545Z,2.97
2023-02-25T21:32:01.064Z,3.13
2023-02-25T21:34:28.588Z,3.03
2023-02-25T21:36:57.675Z,3.10
2023-02-25T21:39:25.956Z,3.00
2023-02-25T21:41:53.657Z,2.93
2023-02-25T21:44:21.134Z,3.30
2023-02-25T21:46:48.831Z,2.90
2023-02-25T21:49:16.267Z,3.23
2023-02-25T21:51:44.000Z,3.33
2023-02-25T21:54:12.217Z,2.33
2023-02-25T21:56:41.092Z,3.10
2023-02-25T21:59:08.625Z,3.60
2023-02-25T22:01:41.241Z,3.53
2023-02-25T22:04:10.195Z,3.87
2023-02-25T22:06:37.819Z,3.37
2023-02-25T22:09:06.944Z,3.40
2023-02-25T22:11:35.257Z,4.30
2023-02-25T22:14:03.539Z,4.00
2023-02-25T22:16:30.995Z,3.47
2023-02-25T22:18:58.876Z,2.87
2023-02-25T22:21:27.223Z,2.87
2023-02-25T22:23:56.241Z,2.80
2023-02-25T22:26:25.598Z,2.40
2023-02-25T22:28:57.592Z,2.30
2023-02-25T22:31:25.652Z,2.13
2023-02-25T22:33:53.144Z,2.33
2023-02-25T22:36:20.770Z,3.00
2023-02-25T22:38:49.378Z,2.60
2023-02-25T22:41:21.088Z,1.93
2023-02-25T22:43:48.709Z,2.10
2023-02-25T22:46:24.012Z,2.33
2023-02-25T22:48:51.741Z,2.53
2023-02-25T22:51:21.229Z,1.77
2023-02-25T22:53:48.787Z,2.00
2023-02-25T22:56:16.561Z,1.80
2023-02-25T22:58:44.257Z,1.70
2023-02-25T23:01:12.531Z,2.10
2023-02-25T23:03:40.272Z,1.80
2023-02-25T23:06:08.226Z,2.13
2023-02-25T23:08:36.293Z,1.67
2023-02-25T23:11:23.522Z,1.73
2023-02-25T23:13:52.685Z,1.90
2023-02-25T23:16:21.775Z,1.93
2023-02-25T23:18:49.340Z,1.90
2023-02-25T23:21:20.029Z,2.50
2023-02-25T23:23:48.630Z,1.73
2023-02-25T23:26:17.491Z,2.00
2023-02-25T23:28:45.130Z,2.10
2023-02-25T23:31:22.260Z,2.13
2023-02-25T23:33:49.813Z,1.70
2023-02-25T23:36:17.261Z,1.90
2023-02-25T23:38:44.726Z,2.10
2023-02-25T23:41:12.195Z,2.30
2023-02-25T23:43:39.762Z,1.73
2023-02-25T23:46:07.529Z,2.07
2023-02-25T23:48:35.055Z,2.30
2023-02-25T23:51:06.574Z,2.23
2023-02-25T23:53:34.382Z,1.90
2023-02-25T23:56:08.726Z,2.33
2023-02-25T23:58:36.768Z,2.50
